createdAt,value
2017-10-01T00:00:45.444Z,992.36
2017-10-01T00:01:42.706Z,992.29
2017-10-01T00:02:39.978Z,992.35
2017-10-01T00:03:37.232Z,992.32
2017-10-01T00:04:34.462Z,992.33
2017-10-01T00:05:31.737Z,992.38
2017-10-01T00:06:28.965Z,992.39
2017-10-01T00:07:26.271Z,992.38
2017-10-01T00:08:23.510Z,992.39
2017-10-01T00:09:20.792Z,992.39
2017-10-01T00:10:18.032Z,992.39
2017-10-01T00:11:15.331Z,992.43
2017-10-01T00:12:12.585Z,992.41
2017-10-01T00:13:09.837Z,992.41
2017-10-01T00:14:07.068Z,992.40
2017-10-01T00:15:04.321Z,992.39
2017-10-01T00:16:01.582Z,992.30
2017-10-01T00:16:58.856Z,992.43
2017-10-01T00:17:56.106Z,992.42
2017-10-01T00:18:54.110Z,992.42
2017-10-01T00:19:51.407Z,992.41
2017-10-01T00:20:48.710Z,992.46
2017-10-01T00:21:45.929Z,992.47
2017-10-01T00:22:43.341Z,992.48
2017-10-01T00:23:40.606Z,992.34
2017-10-01T00:24:37.855Z,992.45
2017-10-01T00:25:35.081Z,992.34
2017-10-01T00:26:32.337Z,992.38
2017-10-01T00:27:29.577Z,992.46
2017-10-01T00:28:26.838Z,992.43
2017-10-01T00:29:24.069Z,992.42
2017-10-01T00:30:21.979Z,992.37
2017-10-01T00:31:19.219Z,992.39
2017-10-01T00:32:16.489Z,992.45
2017-10-01T00:33:13.753Z,992.40
2017-10-01T00:34:11.036Z,992.38
2017-10-01T00:35:08.318Z,992.44
2017-10-01T00:36:05.596Z,992.40
2017-10-01T00:37:02.842Z,992.31
2017-10-01T00:38:00.122Z,992.41
2017-10-01T00:38:59.434Z,992.36
2017-10-01T00:39:56.689Z,992.39
2017-10-01T00:40:53.965Z,992.37
2017-10-01T00:41:51.253Z,992.39
2017-10-01T00:42:50.604Z,992.36
2017-10-01T00:43:47.889Z,992.34
2017-10-01T00:44:45.133Z,992.43
2017-10-01T00:45:42.419Z,992.37
2017-10-01T00:46:39.672Z,992.37
2017-10-01T00:47:36.970Z,992.40
2017-10-01T00:48:34.222Z,992.43
2017-10-01T00:49:31.469Z,992.42
2017-10-01T00:50:28.709Z,992.47
2017-10-01T00:51:26.058Z,992.45
2017-10-01T00:52:23.348Z,992.45
2017-10-01T00:53:20.650Z,992.50
2017-10-01T00:54:17.885Z,992.45
2017-10-01T00:55:15.162Z,992.50
2017-10-01T00:56:12.417Z,992.57
2017-10-01T00:57:09.690Z,992.47
2017-10-01T00:58:06.953Z,992.52
2017-10-01T00:59:04.197Z,992.49
2017-10-01T01:00:01.435Z,992.46
2017-10-01T01:00:58.719Z,992.53
2017-10-01T01:01:55.945Z,992.59
2017-10-01T01:02:53.214Z,992.51
2017-10-01T01:03:50.453Z,992.57
2017-10-01T01:04:47.726Z,992.50
2017-10-01T01:05:44.968Z,992.49
2017-10-01T01:06:42.505Z,992.58
2017-10-01T01:07:39.758Z,992.53
2017-10-01T01:08:37.038Z,992.50
2017-10-01T01:09:34.285Z,992.67
2017-10-01T01:10:31.561Z,992.65
2017-10-01T01:11:28.798Z,992.72
2017-10-01T01:12:26.071Z,992.65
2017-10-01T01:13:23.322Z,992.71
2017-10-01T01:14:20.589Z,992.74
2017-10-01T01:15:17.813Z,992.72
2017-10-01T01:16:15.046Z,992.75
2017-10-01T01:17:12.282Z,992.70
2017-10-01T01:18:09.591Z,992.69
2017-10-01T01:19:06.810Z,992.68
2017-10-01T01:20:04.203Z,992.74
2017-10-01T01:21:01.454Z,992.70
2017-10-01T01:21:58.710Z,992.76
2017-10-01T01:22:55.957Z,992.75
2017-10-01T01:23:53.214Z,992.89
2017-10-01T01:24:50.445Z,992.91
2017-10-01T01:25:47.710Z,992.85
2017-10-01T01:26:44.958Z,992.84
2017-10-01T01:27:42.212Z,992.86
2017-10-01T01:28:39.494Z,992.81
2017-10-01T01:29:36.797Z,992.90
2017-10-01T01:30:34.038Z,992.83
2017-10-01T01:31:31.293Z,992.88
2017-10-01T01:32:28.505Z,992.85
2017-10-01T01:33:25.762Z,992.88
2017-10-01T01:34:23.004Z,992.97
2017-10-01T01:35:20.297Z,992.86
2017-10-01T01:36:17.507Z,992.91
2017-10-01T01:37:14.854Z,992.92
2017-10-01T01:38:12.098Z,992.86
2017-10-01T01:39:09.344Z,992.91
2017-10-01T01:40:06.592Z,992.94
2017-10-01T01:41:03.847Z,993.04
2017-10-01T01:42:01.113Z,993.01
2017-10-01T01:42:58.742Z,993.09
2017-10-01T01:43:55.973Z,993.03
2017-10-01T01:44:53.212Z,993.11
2017-10-01T01:45:50.457Z,993.06
2017-10-01T01:46:47.721Z,993.05
2017-10-01T01:47:44.934Z,993.00
2017-10-01T01:48:42.214Z,992.96
2017-10-01T01:49:39.437Z,992.95
2017-10-01T01:50:36.695Z,993.00
2017-10-01T01:51:33.926Z,993.05
2017-10-01T01:52:31.261Z,992.98
2017-10-01T01:53:28.515Z,993.02
2017-10-01T01:54:25.780Z,992.97
2017-10-01T01:55:23.006Z,993.06
2017-10-01T01:56:20.322Z,993.06
2017-10-01T01:57:17.534Z,993.11
2017-10-01T01:58:14.858Z,993.20
2017-10-01T01:59:14.129Z,993.16
2017-10-01T02:00:11.390Z,993.17
2017-10-01T02:01:08.974Z,993.17
2017-10-01T02:02:06.214Z,993.14
2017-10-01T02:03:03.441Z,993.13
2017-10-01T02:04:00.728Z,993.17
2017-10-01T02:04:57.960Z,993.19
2017-10-01T02:05:55.531Z,993.19
2017-10-01T02:06:52.770Z,993.17
2017-10-01T02:07:50.008Z,993.26
2017-10-01T02:08:47.266Z,993.21
2017-10-01T02:09:44.530Z,993.23
2017-10-01T02:10:41.788Z,993.28
2017-10-01T02:11:40.814Z,993.28
2017-10-01T02:12:38.062Z,993.27
2017-10-01T02:13:35.345Z,993.24
2017-10-01T02:14:32.569Z,993.27
2017-10-01T02:15:29.836Z,993.26
2017-10-01T02:16:27.046Z,993.28
2017-10-01T02:17:24.307Z,993.20
2017-10-01T02:18:21.547Z,993.22
2017-10-01T02:19:18.829Z,993.15
2017-10-01T02:20:16.029Z,993.16
2017-10-01T02:21:13.380Z,993.19
2017-10-01T02:22:10.617Z,993.19
2017-10-01T02:23:07.869Z,993.11
2017-10-01T02:24:05.132Z,993.13
2017-10-01T02:25:02.377Z,993.13
2017-10-01T02:25:59.614Z,993.13
2017-10-01T02:26:56.866Z,993.19
2017-10-01T02:27:54.102Z,993.21
2017-10-01T02:28:51.457Z,993.26
2017-10-01T02:29:48.701Z,993.24
2017-10-01T02:30:46.106Z,993.13
2017-10-01T02:31:43.331Z,993.22
2017-10-01T02:32:40.609Z,993.20
2017-10-01T02:33:37.852Z,993.25
2017-10-01T02:34:35.103Z,993.27
2017-10-01T02:35:32.326Z,993.22
2017-10-01T02:36:29.554Z,993.19
2017-10-01T02:37:26.781Z,993.22
2017-10-01T02:38:24.021Z,993.23
2017-10-01T02:39:21.272Z,993.24
2017-10-01T02:40:18.537Z,993.26
2017-10-01T02:41:15.770Z,993.19
2017-10-01T02:42:13.022Z,993.24
2017-10-01T02:43:10.242Z,993.26
2017-10-01T02:44:09.646Z,993.23
2017-10-01T02:45:06.893Z,993.21
2017-10-01T02:46:04.134Z,993.20
2017-10-01T02:47:01.375Z,993.19
2017-10-01T02:47:58.629Z,993.10
2017-10-01T02:48:55.891Z,993.14
2017-10-01T02:49:54.279Z,993.09
2017-10-01T02:50:51.506Z,993.15
2017-10-01T02:51:48.761Z,993.15
2017-10-01T02:52:45.987Z,993.10
2017-10-01T02:53:43.268Z,993.14
2017-10-01T02:54:40.498Z,993.14
2017-10-01T02:55:37.738Z,993.12
2017-10-01T02:56:34.962Z,993.15
2017-10-01T02:57:32.216Z,993.17
2017-10-01T02:58:29.467Z,993.13
2017-10-01T02:59:26.785Z,993.14
2017-10-01T03:00:24.039Z,993.07
2017-10-01T03:01:21.320Z,993.03
2017-10-01T03:02:18.570Z,993.06
2017-10-01T03:03:15.815Z,993.09
2017-10-01T03:04:13.058Z,993.16
2017-10-01T03:05:10.630Z,993.04
2017-10-01T03:06:07.846Z,993.00
2017-10-01T03:07:05.082Z,993.08
2017-10-01T03:08:02.311Z,993.05
2017-10-01T03:08:59.614Z,993.09
2017-10-01T03:09:56.845Z,993.13
2017-10-01T03:10:54.088Z,993.09
2017-10-01T03:11:51.305Z,993.12
2017-10-01T03:12:48.598Z,993.10
2017-10-01T03:13:45.821Z,993.18
2017-10-01T03:14:43.385Z,993.10
2017-10-01T03:15:40.621Z,993.10
2017-10-01T03:16:37.902Z,993.13
2017-10-01T03:17:35.150Z,993.08
2017-10-01T03:18:32.385Z,993.17
2017-10-01T03:19:31.690Z,993.07
2017-10-01T03:20:28.921Z,993.12
2017-10-01T03:21:26.174Z,993.03
2017-10-01T03:22:23.393Z,993.03
2017-10-01T03:23:22.681Z,993.05
2017-10-01T03:24:19.899Z,992.98
2017-10-01T03:25:17.165Z,992.98
2017-10-01T03:26:14.441Z,993.03
2017-10-01T03:27:11.681Z,992.99
2017-10-01T03:28:08.905Z,992.99
2017-10-01T03:29:06.254Z,992.95
2017-10-01T03:30:03.472Z,992.94
2017-10-01T03:31:00.854Z,993.03
2017-10-01T03:31:58.085Z,993.04
2017-10-01T03:32:55.457Z,993.01
2017-10-01T03:33:52.670Z,992.98
2017-10-01T03:34:49.958Z,992.97
2017-10-01T03:35:47.198Z,992.97
2017-10-01T03:36:44.465Z,992.94
2017-10-01T03:37:41.690Z,992.91
2017-10-01T03:38:39.114Z,992.98
2017-10-01T03:39:36.352Z,992.95
2017-10-01T03:40:33.650Z,992.92
2017-10-01T03:41:30.867Z,992.99
2017-10-01T03:42:28.133Z,992.98
2017-10-01T03:43:25.343Z,993.00
2017-10-01T03:44:22.638Z,992.97
2017-10-01T03:45:19.904Z,993.01
2017-10-01T03:46:19.191Z,992.97
2017-10-01T03:47:16.443Z,993.02
2017-10-01T03:48:13.702Z,992.98
2017-10-01T03:49:10.937Z,993.04
2017-10-01T03:50:08.249Z,993.06
2017-10-01T03:51:05.473Z,993.01
2017-10-01T03:52:02.723Z,993.06
2017-10-01T03:52:59.945Z,993.06
2017-10-01T03:53:57.198Z,993.07
2017-10-01T03:54:54.446Z,993.05
2017-10-01T03:55:51.706Z,993.11
2017-10-01T03:56:48.949Z,993.07
2017-10-01T03:57:46.198Z,993.11
2017-10-01T03:58:43.417Z,993.15
2017-10-01T03:59:40.706Z,993.07
2017-10-01T04:00:37.940Z,993.04
2017-10-01T04:01:35.206Z,992.98
2017-10-01T04:02:32.449Z,993.02
2017-10-01T04:03:29.710Z,992.99
2017-10-01T04:04:26.957Z,993.00
2017-10-01T04:05:24.219Z,992.98
2017-10-01T04:06:21.442Z,993.06
2017-10-01T04:07:18.702Z,993.02
2017-10-01T04:08:15.950Z,993.03
2017-10-01T04:09:13.230Z,993.09
2017-10-01T04:10:10.492Z,993.01
2017-10-01T04:11:07.741Z,993.11
2017-10-01T04:12:04.984Z,993.15
2017-10-01T04:13:02.250Z,993.12
2017-10-01T04:13:59.526Z,993.22
2017-10-01T04:14:56.833Z,993.25
2017-10-01T04:15:54.044Z,993.25
2017-10-01T04:16:51.389Z,993.35
2017-10-01T04:17:48.649Z,993.39
2017-10-01T04:18:45.922Z,993.30
2017-10-01T04:19:43.181Z,993.31
2017-10-01T04:20:40.428Z,993.30
2017-10-01T04:21:37.715Z,993.30
2017-10-01T04:22:34.977Z,993.34
2017-10-01T04:23:32.211Z,993.32
2017-10-01T04:24:29.493Z,993.41
2017-10-01T04:25:26.766Z,993.31
2017-10-01T04:26:24.088Z,993.37
2017-10-01T04:27:21.427Z,993.34
2017-10-01T04:28:18.737Z,993.37
2017-10-01T04:29:16.027Z,993.29
2017-10-01T04:30:13.365Z,993.29
2017-10-01T04:31:10.924Z,993.24
2017-10-01T04:32:08.212Z,993.29
2017-10-01T04:33:05.437Z,993.25
2017-10-01T04:34:02.690Z,993.33
2017-10-01T04:34:59.962Z,993.29
2017-10-01T04:35:57.226Z,993.33
2017-10-01T04:36:54.466Z,993.25
2017-10-01T04:37:51.709Z,993.23
2017-10-01T04:38:48.925Z,993.31
2017-10-01T04:39:46.213Z,993.32
2017-10-01T04:40:43.437Z,993.27
2017-10-01T04:41:40.695Z,993.30
2017-10-01T04:42:37.939Z,993.29
2017-10-01T04:43:35.189Z,993.26
2017-10-01T04:44:32.424Z,993.32
2017-10-01T04:45:29.710Z,993.32
2017-10-01T04:46:26.938Z,993.36
2017-10-01T04:47:24.178Z,993.40
2017-10-01T04:48:21.434Z,993.34
2017-10-01T04:49:20.737Z,993.44
2017-10-01T04:50:18.019Z,993.46
2017-10-01T04:51:15.261Z,993.46
2017-10-01T04:52:12.484Z,993.44
2017-10-01T04:53:09.757Z,993.44
2017-10-01T04:54:07.009Z,993.48
2017-10-01T04:55:04.294Z,993.46
2017-10-01T04:56:01.523Z,993.48
2017-10-01T04:56:58.825Z,993.54
2017-10-01T04:57:56.062Z,993.47
2017-10-01T04:58:53.325Z,993.48
2017-10-01T04:59:50.581Z,993.43
2017-10-01T05:00:47.855Z,993.54
2017-10-01T05:01:45.078Z,993.44
2017-10-01T05:02:42.328Z,993.41
2017-10-01T05:03:39.552Z,993.43
2017-10-01T05:04:37.041Z,993.45
2017-10-01T05:05:36.473Z,993.50
2017-10-01T05:06:33.726Z,993.50
2017-10-01T05:07:30.994Z,993.48
2017-10-01T05:08:28.241Z,993.54
2017-10-01T05:09:25.476Z,993.51
2017-10-01T05:10:22.732Z,993.58
2017-10-01T05:11:19.948Z,993.52
2017-10-01T05:12:17.215Z,993.50
2017-10-01T05:13:14.450Z,993.50
2017-10-01T05:14:11.740Z,993.56
2017-10-01T05:15:09.595Z,993.51
2017-10-01T05:16:06.831Z,993.51
2017-10-01T05:17:04.087Z,993.46
2017-10-01T05:18:01.334Z,993.46
2017-10-01T05:18:58.598Z,993.40
2017-10-01T05:19:55.902Z,993.44
2017-10-01T05:20:53.212Z,993.40
2017-10-01T05:21:50.510Z,993.33
2017-10-01T05:22:47.785Z,993.35
2017-10-01T05:23:45.046Z,993.31
2017-10-01T05:24:42.329Z,993.32
2017-10-01T05:25:39.599Z,993.35
2017-10-01T05:26:36.833Z,993.40
2017-10-01T05:27:34.077Z,993.34
2017-10-01T05:28:31.294Z,993.37
2017-10-01T05:29:28.644Z,993.36
2017-10-01T05:30:26.008Z,993.33
2017-10-01T05:31:23.791Z,993.29
2017-10-01T05:32:21.026Z,993.38
2017-10-01T05:33:18.277Z,993.32
2017-10-01T05:34:15.524Z,993.31
2017-10-01T05:35:12.826Z,993.34
2017-10-01T05:36:10.045Z,993.27
2017-10-01T05:37:07.333Z,993.31
2017-10-01T05:38:04.559Z,993.31
2017-10-01T05:39:01.801Z,993.19
2017-10-01T05:39:59.071Z,993.27
2017-10-01T05:40:56.368Z,993.25
2017-10-01T05:41:53.598Z,993.23
2017-10-01T05:42:50.894Z,993.24
2017-10-01T05:43:48.125Z,993.26
2017-10-01T05:44:45.373Z,993.21
2017-10-01T05:45:42.623Z,993.19
2017-10-01T05:46:39.919Z,993.29
2017-10-01T05:47:37.170Z,993.22
2017-10-01T05:48:34.433Z,993.21
2017-10-01T05:49:31.686Z,993.29
2017-10-01T05:50:28.950Z,993.21
2017-10-01T05:51:26.335Z,993.27
2017-10-01T05:52:23.685Z,993.29
2017-10-01T05:53:20.989Z,993.22
2017-10-01T05:54:18.327Z,993.31
2017-10-01T05:55:15.590Z,993.26
2017-10-01T05:56:12.881Z,993.25
2017-10-01T05:57:12.159Z,993.22
2017-10-01T05:58:09.414Z,993.23
2017-10-01T05:59:06.841Z,993.29
2017-10-01T06:00:04.239Z,993.27
2017-10-01T06:01:01.477Z,993.27
2017-10-01T06:01:58.721Z,993.31
2017-10-01T06:02:55.993Z,993.22
2017-10-01T06:03:53.244Z,993.24
2017-10-01T06:04:50.466Z,993.27
2017-10-01T06:05:48.095Z,993.27
2017-10-01T06:06:45.385Z,993.30
2017-10-01T06:07:42.651Z,993.37
2017-10-01T06:08:39.891Z,993.31
2017-10-01T06:09:37.232Z,993.40
2017-10-01T06:10:34.507Z,993.40
2017-10-01T06:11:31.869Z,993.41
2017-10-01T06:12:29.152Z,993.45
2017-10-01T06:13:26.430Z,993.41
2017-10-01T06:14:23.835Z,993.45
2017-10-01T06:15:21.558Z,993.53
2017-10-01T06:16:18.810Z,993.53
2017-10-01T06:17:16.059Z,993.52
2017-10-01T06:18:13.302Z,993.53
2017-10-01T06:19:10.558Z,993.54
2017-10-01T06:20:07.789Z,993.53
2017-10-01T06:21:05.062Z,993.54
2017-10-01T06:22:02.438Z,993.54
2017-10-01T06:22:59.702Z,993.52
2017-10-01T06:23:56.941Z,993.51
2017-10-01T06:24:54.213Z,993.62
2017-10-01T06:25:51.505Z,993.45
2017-10-01T06:26:48.782Z,993.61
2017-10-01T06:27:48.062Z,993.52
2017-10-01T06:28:45.329Z,993.52
2017-10-01T06:29:42.567Z,993.53
2017-10-01T06:30:39.909Z,993.52
2017-10-01T06:31:37.136Z,993.48
2017-10-01T06:32:34.385Z,993.46
2017-10-01T06:33:31.596Z,993.56
2017-10-01T06:34:28.917Z,993.52
2017-10-01T06:35:26.185Z,993.63
2017-10-01T06:36:23.454Z,993.60
2017-10-01T06:37:20.699Z,993.60
2017-10-01T06:38:17.954Z,993.57
2017-10-01T06:39:15.242Z,993.53
2017-10-01T06:40:12.502Z,993.60
2017-10-01T06:41:09.815Z,993.65
2017-10-01T06:42:07.106Z,993.60
2017-10-01T06:43:04.516Z,993.60
2017-10-01T06:44:01.861Z,993.59
2017-10-01T06:44:59.122Z,993.64
2017-10-01T06:45:56.426Z,993.59
2017-10-01T06:46:53.662Z,993.60
2017-10-01T06:47:50.926Z,993.61
2017-10-01T06:48:48.177Z,993.64
2017-10-01T06:49:45.426Z,993.69
2017-10-01T06:50:42.677Z,993.67
2017-10-01T06:51:40.039Z,993.72
2017-10-01T06:52:37.264Z,993.74
2017-10-01T06:53:34.546Z,993.67
2017-10-01T06:54:31.811Z,993.77
2017-10-01T06:55:29.079Z,993.77
2017-10-01T06:56:26.330Z,993.73
2017-10-01T06:57:23.583Z,993.80
2017-10-01T06:58:20.822Z,993.81
2017-10-01T06:59:18.076Z,993.84
2017-10-01T07:00:15.295Z,993.78
2017-10-01T07:01:12.593Z,993.75
2017-10-01T07:02:09.876Z,993.74
2017-10-01T07:03:07.126Z,993.74
2017-10-01T07:04:04.362Z,993.75
2017-10-01T07:05:01.796Z,993.81
2017-10-01T07:05:59.058Z,993.72
2017-10-01T07:06:56.321Z,993.77
2017-10-01T07:07:53.581Z,993.81
2017-10-01T07:08:50.859Z,993.83
2017-10-01T07:09:48.105Z,993.86
2017-10-01T07:10:45.413Z,993.76
2017-10-01T07:11:42.673Z,993.86
2017-10-01T07:12:39.946Z,993.88
2017-10-01T07:13:37.183Z,993.85
2017-10-01T07:14:34.437Z,993.89
2017-10-01T07:15:31.696Z,993.85
2017-10-01T07:16:29.002Z,993.84
2017-10-01T07:17:26.233Z,993.88
2017-10-01T07:18:23.482Z,993.91
2017-10-01T07:19:20.725Z,993.89
2017-10-01T07:20:17.989Z,993.89
2017-10-01T07:21:15.249Z,993.93
2017-10-01T07:22:12.542Z,993.88
2017-10-01T07:23:09.796Z,993.82
2017-10-01T07:24:07.087Z,993.82
2017-10-01T07:25:04.373Z,993.75
2017-10-01T07:26:01.643Z,993.67
2017-10-01T07:26:58.938Z,993.70
2017-10-01T07:27:56.189Z,993.70
2017-10-01T07:28:53.416Z,993.73
2017-10-01T07:29:50.673Z,993.65
2017-10-01T07:30:47.899Z,993.71
2017-10-01T07:31:45.198Z,993.69
2017-10-01T07:32:42.429Z,993.78
2017-10-01T07:33:39.685Z,993.71
2017-10-01T07:34:36.929Z,993.68
2017-10-01T07:35:34.211Z,993.73
2017-10-01T07:36:31.457Z,993.73
2017-10-01T07:37:28.705Z,993.69
2017-10-01T07:38:25.928Z,993.72
2017-10-01T07:39:23.182Z,993.73
2017-10-01T07:40:20.393Z,993.73
2017-10-01T07:41:17.693Z,993.68
2017-10-01T07:42:14.977Z,993.76
2017-10-01T07:43:12.210Z,993.74
2017-10-01T07:44:09.449Z,993.75
2017-10-01T07:45:06.736Z,993.80
2017-10-01T07:46:04.001Z,993.76
2017-10-01T07:47:01.313Z,993.70
2017-10-01T07:47:58.600Z,993.78
2017-10-01T07:48:55.957Z,993.81
2017-10-01T07:49:53.199Z,993.74
2017-10-01T07:50:50.486Z,993.73
2017-10-01T07:51:47.787Z,993.76
2017-10-01T07:52:45.077Z,993.81
2017-10-01T07:53:42.316Z,993.74
2017-10-01T07:54:39.703Z,993.83
2017-10-01T07:55:36.934Z,993.76
2017-10-01T07:56:34.193Z,993.74
2017-10-01T07:57:31.437Z,993.77
2017-10-01T07:58:28.730Z,993.74
2017-10-01T07:59:26.116Z,993.76
2017-10-01T08:00:23.945Z,993.74
2017-10-01T08:01:21.232Z,993.74
2017-10-01T08:02:18.525Z,993.71
2017-10-01T08:03:15.825Z,993.59
2017-10-01T08:04:13.296Z,993.70
2017-10-01T08:05:10.672Z,993.64
2017-10-01T08:06:07.941Z,993.55
2017-10-01T08:07:05.221Z,993.56
2017-10-01T08:08:02.514Z,993.47
2017-10-01T08:08:59.769Z,993.52
2017-10-01T08:09:57.021Z,993.52
2017-10-01T08:10:54.303Z,993.50
2017-10-01T08:11:51.633Z,993.54
2017-10-01T08:12:48.866Z,993.52
2017-10-01T08:13:46.093Z,993.64
2017-10-01T08:14:43.302Z,993.63
2017-10-01T08:15:40.577Z,993.73
2017-10-01T08:16:37.826Z,993.68
2017-10-01T08:17:35.090Z,993.83
2017-10-01T08:18:32.313Z,993.88
2017-10-01T08:19:29.565Z,993.81
2017-10-01T08:20:26.795Z,993.89
2017-10-01T08:21:24.058Z,993.88
2017-10-01T08:22:21.324Z,993.82
2017-10-01T08:23:18.582Z,993.81
2017-10-01T08:24:15.818Z,993.83
2017-10-01T08:25:13.129Z,993.80
2017-10-01T08:26:10.441Z,993.86
2017-10-01T08:27:07.843Z,993.88
2017-10-01T08:28:05.082Z,993.82
2017-10-01T08:29:02.341Z,993.91
2017-10-01T08:29:59.567Z,993.95
2017-10-01T08:30:57.414Z,993.90
2017-10-01T08:31:54.651Z,993.94
2017-10-01T08:32:51.931Z,993.85
2017-10-01T08:33:49.236Z,993.91
2017-10-01T08:34:46.547Z,993.84
2017-10-01T08:35:43.805Z,993.91
2017-10-01T08:36:41.042Z,993.86
2017-10-01T08:37:38.310Z,994.01
2017-10-01T08:38:35.578Z,993.86
2017-10-01T08:39:32.795Z,993.91
2017-10-01T08:40:30.071Z,993.95
2017-10-01T08:41:27.314Z,993.93
2017-10-01T08:42:24.620Z,993.92
2017-10-01T08:43:21.840Z,993.96
2017-10-01T08:44:19.112Z,993.96
2017-10-01T08:45:16.353Z,993.91
2017-10-01T08:46:13.606Z,993.95
2017-10-01T08:47:10.979Z,994.00
2017-10-01T08:48:08.275Z,993.97
2017-10-01T08:49:05.605Z,994.04
2017-10-01T08:50:02.894Z,994.01
2017-10-01T08:51:00.161Z,993.92
2017-10-01T08:51:57.414Z,993.92
2017-10-01T08:52:54.741Z,993.87
2017-10-01T08:53:52.412Z,993.96
2017-10-01T08:54:49.845Z,993.97
2017-10-01T08:55:47.129Z,993.92
2017-10-01T08:56:44.379Z,993.93
2017-10-01T08:57:41.661Z,993.99
2017-10-01T08:58:39.134Z,993.94
2017-10-01T08:59:36.581Z,993.91
2017-10-01T09:00:33.958Z,993.96
2017-10-01T09:01:31.238Z,993.93
2017-10-01T09:02:28.481Z,993.95
2017-10-01T09:03:25.721Z,993.90
2017-10-01T09:04:22.945Z,993.96
2017-10-01T09:05:20.552Z,993.89
2017-10-01T09:06:17.820Z,993.95
2017-10-01T09:07:15.102Z,994.00
2017-10-01T09:08:12.404Z,993.96
2017-10-01T09:09:09.703Z,994.01
2017-10-01T09:10:06.933Z,993.98
2017-10-01T09:11:04.190Z,993.93
2017-10-01T09:12:01.440Z,993.93
2017-10-01T09:12:58.711Z,993.93
2017-10-01T09:13:55.930Z,993.91
2017-10-01T09:14:53.170Z,993.90
2017-10-01T09:15:51.152Z,993.94
2017-10-01T09:16:48.446Z,993.81
2017-10-01T09:17:45.994Z,993.86
2017-10-01T09:18:43.291Z,993.84
2017-10-01T09:19:40.597Z,993.87
2017-10-01T09:20:37.954Z,993.87
2017-10-01T09:21:35.267Z,993.85
2017-10-01T09:22:32.696Z,993.81
2017-10-01T09:23:29.930Z,993.85
2017-10-01T09:24:29.347Z,993.83
2017-10-01T09:25:26.594Z,993.83
2017-10-01T09:26:23.845Z,993.78
2017-10-01T09:27:23.170Z,993.82
2017-10-01T09:28:20.456Z,993.78
2017-10-01T09:29:17.702Z,993.69
2017-10-01T09:30:14.941Z,993.72
2017-10-01T09:31:12.171Z,993.70
2017-10-01T09:32:09.643Z,993.67
2017-10-01T09:33:06.992Z,993.70
2017-10-01T09:34:04.473Z,993.70
2017-10-01T09:35:01.760Z,993.61
2017-10-01T09:35:59.065Z,993.68
2017-10-01T09:36:56.337Z,993.66
2017-10-01T09:37:53.655Z,993.74
2017-10-01T09:38:50.902Z,993.68
2017-10-01T09:39:48.173Z,993.66
2017-10-01T09:40:46.321Z,993.60
2017-10-01T09:41:43.582Z,993.68
2017-10-01T09:42:40.830Z,993.57
2017-10-01T09:43:38.077Z,993.59
2017-10-01T09:44:35.341Z,993.63
2017-10-01T09:45:32.644Z,993.58
2017-10-01T09:46:29.898Z,993.54
2017-10-01T09:47:27.170Z,993.52
2017-10-01T09:48:24.445Z,993.50
2017-10-01T09:49:21.749Z,993.63
2017-10-01T09:50:18.997Z,993.49
2017-10-01T09:51:16.239Z,993.55
2017-10-01T09:52:13.477Z,993.40
2017-10-01T09:53:10.805Z,993.50
2017-10-01T09:54:08.033Z,993.49
2017-10-01T09:55:05.270Z,993.49
2017-10-01T09:56:02.493Z,993.51
2017-10-01T09:56:59.738Z,993.50
2017-10-01T09:57:56.994Z,993.47
2017-10-01T09:58:54.665Z,993.49
2017-10-01T09:59:51.904Z,993.46
2017-10-01T10:00:49.166Z,993.54
2017-10-01T10:01:46.386Z,993.51
2017-10-01T10:02:43.651Z,993.56
2017-10-01T10:03:40.889Z,993.57
2017-10-01T10:04:38.169Z,993.47
2017-10-01T10:05:35.403Z,993.54
2017-10-01T10:06:32.661Z,993.44
2017-10-01T10:07:30.034Z,993.48
2017-10-01T10:08:27.439Z,993.43
2017-10-01T10:09:24.679Z,993.46
2017-10-01T10:10:21.926Z,993.35
2017-10-01T10:11:19.159Z,993.33
2017-10-01T10:12:16.389Z,993.37
2017-10-01T10:13:18.762Z,993.39
2017-10-01T10:14:21.126Z,993.45
2017-10-01T10:15:18.436Z,993.38
2017-10-01T10:18:24.053Z,993.34
2017-10-01T10:19:21.667Z,993.41
2017-10-01T10:20:18.902Z,993.41
2017-10-01T10:21:16.121Z,993.45
2017-10-01T10:22:13.358Z,993.52
2017-10-01T10:23:41.017Z,993.47
2017-10-01T10:24:38.873Z,993.40
2017-10-01T10:25:36.253Z,993.49
2017-10-01T10:26:33.667Z,993.44
2017-10-01T10:27:30.901Z,993.51
2017-10-01T10:28:28.116Z,993.52
2017-10-01T10:29:27.703Z,993.46
2017-10-01T10:30:27.104Z,993.50
2017-10-01T10:31:26.220Z,993.51
2017-10-01T10:32:24.649Z,993.58
2017-10-01T10:33:22.020Z,993.63
2017-10-01T10:34:19.818Z,993.60
2017-10-01T10:35:17.543Z,993.58
2017-10-01T10:36:16.284Z,993.65
2017-10-01T10:37:14.320Z,993.54
2017-10-01T10:38:12.520Z,993.59
2017-10-01T10:39:11.385Z,993.57
2017-10-01T10:40:08.921Z,993.56
2017-10-01T10:41:06.678Z,993.64
2017-10-01T10:42:04.481Z,993.60
2017-10-01T10:43:03.566Z,993.67
2017-10-01T10:44:03.191Z,993.59
2017-10-01T10:45:02.964Z,993.54
2017-10-01T10:46:00.901Z,993.58
2017-10-01T10:46:59.703Z,993.57
2017-10-01T10:47:57.197Z,993.53
2017-10-01T10:48:55.045Z,993.57
2017-10-01T10:49:52.757Z,993.42
2017-10-01T10:50:53.787Z,993.43
2017-10-01T10:51:51.425Z,993.54
2017-10-01T10:52:48.657Z,993.45
2017-10-01T10:53:45.889Z,993.44
2017-10-01T10:54:43.881Z,993.45
2017-10-01T10:55:45.914Z,993.28
2017-10-01T10:56:46.854Z,993.39
2017-10-01T10:57:44.074Z,993.42
2017-10-01T10:58:42.064Z,993.36
2017-10-01T10:59:40.137Z,993.41
2017-10-01T11:00:37.538Z,993.35
2017-10-01T11:01:35.105Z,993.32
2017-10-01T11:02:32.541Z,993.34
2017-10-01T11:03:30.381Z,993.26
2017-10-01T11:04:28.177Z,993.31
2017-10-01T11:05:26.136Z,993.33
2017-10-01T11:06:25.127Z,993.28
2017-10-01T11:07:25.228Z,993.20
2017-10-01T11:08:23.287Z,993.18
2017-10-01T11:09:22.169Z,993.13
2017-10-01T11:10:20.947Z,993.24
2017-10-01T11:11:18.500Z,993.23
2017-10-01T11:12:17.887Z,993.18
2017-10-01T11:13:16.590Z,993.23
2017-10-01T11:14:14.915Z,993.24
2017-10-01T11:15:15.849Z,993.22
2017-10-01T11:16:15.251Z,993.21
2017-10-01T11:17:12.745Z,993.23
2017-10-01T11:18:10.667Z,993.27
2017-10-01T11:19:08.821Z,993.34
2017-10-01T11:20:06.760Z,993.33
2017-10-01T11:21:04.029Z,993.36
2017-10-01T11:22:01.517Z,993.35
2017-10-01T11:22:58.745Z,993.31
2017-10-01T11:23:56.017Z,993.25
2017-10-01T11:24:53.561Z,993.28
2017-10-01T11:26:48.894Z,993.19
2017-10-01T11:28:07.872Z,993.19
2017-10-01T11:29:11.971Z,993.18
2017-10-01T11:34:36.405Z,993.06
2017-10-01T11:35:43.975Z,993.15
2017-10-01T11:36:50.250Z,993.21
2017-10-01T11:37:57.083Z,993.17
2017-10-01T11:39:03.921Z,993.17
2017-10-01T11:40:10.849Z,993.10
2017-10-01T11:41:17.750Z,993.07
2017-10-01T11:42:24.551Z,993.02
2017-10-01T11:43:31.460Z,993.05
2017-10-01T11:44:38.353Z,993.04
2017-10-01T11:45:45.216Z,993.05
2017-10-01T11:46:51.989Z,993.01
2017-10-01T11:47:58.762Z,993.02
2017-10-01T11:49:05.788Z,992.91
2017-10-01T11:50:13.063Z,992.93
2017-10-01T11:51:19.388Z,992.92
2017-10-01T11:52:26.426Z,992.98
2017-10-01T11:53:33.338Z,993.03
2017-10-01T11:54:40.226Z,992.96
2017-10-01T11:55:47.037Z,992.92
2017-10-01T11:56:53.863Z,992.98
2017-10-01T11:58:00.649Z,992.95
2017-10-01T11:59:07.441Z,992.91
2017-10-01T12:00:14.238Z,992.95
2017-10-01T12:01:21.025Z,992.88
2017-10-01T12:02:27.823Z,992.87
2017-10-01T12:03:34.599Z,992.87
2017-10-01T12:04:41.397Z,992.92
2017-10-01T12:05:48.360Z,992.85
2017-10-01T12:06:55.125Z,992.86
2017-10-01T12:08:01.970Z,992.85
2017-10-01T12:09:08.737Z,992.82
2017-10-01T12:10:15.765Z,992.88